Pickford, MI (49774)

8:53 AM EDT on September 21, 2014 (GMT -0400)
Charlotte Beach | Change Station
CLOSE
Current Station
Personal Weather Station
Location: Barbeau, MI
Elevation: 571 ft
Nearby Weather Stations

Elev 571 ft 46.31 °N, 84.22 °W | Updated 10 minutes ago

Overcast
Overcast
51.9 °F
Feels Like 51.9 °F
N
16.0
Wind Variable Wind from NNW
Gusts 24.0 mph

Today
High -- | Low -- °F
--% Chance of Precip.
Yesterday
High -- | Low -- °F
Precip. -- in
7:22 AM 7:36 PM
Waning Crescent, 7% visible
Pressure 29.67 in
Visibility 10.0 miles
Clouds Overcast 1400 ft
Dew Point 49 °F
Humidity 88%
Rainfall 0.00 in
Snow Depth Not available.
UV 0 out of 12
Pollen 1.60 out of 12
Ozone Good
PM2.5 Good
Flu Activity Not available.
METAR KCIU 211235Z AUTO 01013G19KT 10SM OVC014 10/08 A2967 RMK AO1

More Conditions Fewer Conditions

Pressure 29.67 in
Visibility 10.0 miles
Clouds Overcast 1400 ft
Dew Point 49 °F
Humidity 88%
Rainfall 0.00 in
Snow Depth Not available.
UV 0 out of 12
Pollen 1.60 out of 12
Ozone Good
PM2.5 Good
Flu Activity Not available.
METAR KCIU 211235Z AUTO 01013G19KT 10SM OVC014 10/08 A2967 RMK AO1

More Conditions Fewer Conditions

Nowcast | as of 8:00 am EDT on September 21, 2014

At 9 am...cloudy. Temperature 50. North winds 9 mph. At 11 am...cloudy. Temperature 50. North winds 10 mph. At 1 PM...mostly cloudy. Temperature 52. North winds 13 mph. At 3 PM...mostly cloudy. Temperature 52. North winds 14 mph.

×

10-Day Weather Forecast

Almanac

Astronomy

Sep. 21, 2014 Rise Set
Actual Time 7:22 AM EDT 7:36 PM EDT
Civil Twilight 6:52 AM EDT 8:06 PM EDT
Nautical Twilight 6:17 AM EDT 8:41 PM EDT
Astronomical Twilight 5:40 AM EDT 9:17 PM EDT
Moon 4:48 AM EDT 6:16 PM EDT
Length of Visible Light 13h 13m
Length of Day
12h 13m
Tomorrow will be 3m 14s shorter.
Waning Crescent, 7% of the Moon is Illuminated
Today
Waning Crescent
Sep 24
New
Oct 1
First Quarter
Oct 8
Full
Oct 15
Last Quarter

Today's Extremes

State Highs State Lows

Community

WunderPhotos

Upload Photos

1,755,127 photos uploaded!

Nearby

Air Quality

  Air Quality AQ Index Pollutant
Yesterday Good
OZONE
Yesterday Good
PM2.5
Current Good
PM2.5
Current Good
OZONE
Sunday Good
OZONE
Sunday Good
PM2.5
Monday Good
OZONE
Monday Good
PM2.5

Snow Depth

Station Depth Elevation
No new snow has been reported.

Earthquake Activity

City Distance Mag. Time & Date
No recent earthquake activity has been reported nearby.
Minimum magnitude displayed is 2.5.

Coastal Water Temperatures

Place Temperature
De Tour Village, MI 55.9 °F
Rock Cut, MI 57.9 °F
Little Rapids, MI 57.0 °F
S W Pier, MI 57.9 °F
West Neebish, MI 57.0 °F

Nearby Weather Stations